Time;durP1;ratioP1;P1;durP2;ratioP2;P2;SDS_P1;SDS_P2;PMS_P1;PMS_P2;Temp;Humidity;BMP_temperature;BMP_pressure;BME280_temperature;BME280_humidity;BME280_pressure;Samples;Min_cycle;Max_cycle;Signal;HPM_P1;HPM_P2
2023/05/31 00:00:52;;;;;;;14.68;11.88;;;12.70;99.90;;;;;;1969281;28;20132;-63
2023/05/31 00:01:49;;;;;;;15.20;10.73;;;12.70;99.90;;;;;;1973399;28;20071;-62
2023/05/31 00:02:47;;;;;;;15.10;11.30;;;12.70;99.90;;;;;;1970611;28;20040;-63
2023/05/31 00:03:44;;;;;;;16.17;11.75;;;12.70;99.90;;;;;;1972415;28;20022;-62
2023/05/31 00:04:42;;;;;;;16.63;11.43;;;12.70;99.90;;;;;;1973158;28;20116;-62
2023/05/31 00:05:39;;;;;;;21.33;12.02;;;12.70;99.90;;;;;;1972277;28;20021;-63
2023/05/31 00:06:37;;;;;;;13.02;10.40;;;12.70;99.90;;;;;;1973188;28;20013;-62
2023/05/31 00:07:34;;;;;;;13.25;10.85;;;12.70;99.90;;;;;;1972567;28;20037;-63
2023/05/31 00:08:32;;;;;;;19.35;11.60;;;12.70;99.90;;;;;;1973159;28;20037;-63
2023/05/31 00:09:29;;;;;;;15.32;11.40;;;12.70;99.90;;;;;;1974148;28;20116;-63
2023/05/31 00:10:27;;;;;;;14.90;10.80;;;12.70;99.90;;;;;;1972026;28;20057;-63
2023/05/31 00:11:26;;;;;;;13.65;10.05;;;12.70;99.90;;;;;;1970078;28;20028;-63
2023/05/31 00:12:23;;;;;;;15.13;11.85;;;12.70;99.90;;;;;;1969092;28;20084;-63
2023/05/31 00:13:21;;;;;;;19.80;11.60;;;12.70;99.90;;;;;;1972100;28;20659;-63
2023/05/31 00:14:18;;;;;;;18.27;10.95;;;12.70;99.90;;;;;;1971164;28;20529;-63
2023/05/31 00:15:16;;;;;;;15.40;11.10;;;12.70;99.90;;;;;;1971860;28;20647;-63
2023/05/31 00:16:14;;;;;;;16.40;11.50;;;12.70;99.90;;;;;;1970707;28;20030;-62
2023/05/31 00:17:12;;;;;;;15.70;12.23;;;12.60;99.90;;;;;;1972138;28;20612;-63
2023/05/31 00:18:09;;;;;;;16.95;12.10;;;12.60;99.90;;;;;;1970503;28;20339;-63
2023/05/31 00:19:07;;;;;;;19.00;12.05;;;12.60;99.90;;;;;;1971291;28;20033;-62
2023/05/31 00:20:05;;;;;;;20.02;12.45;;;12.60;99.90;;;;;;1973171;28;20033;-62
2023/05/31 00:21:03;;;;;;;19.08;11.70;;;12.60;99.90;;;;;;1971502;28;20069;-63
2023/05/31 00:22:00;;;;;;;16.38;11.27;;;12.60;99.90;;;;;;1970577;28;20030;-62
2023/05/31 00:22:58;;;;;;;17.75;11.48;;;12.60;99.90;;;;;;1969445;28;20025;-63
2023/05/31 00:23:55;;;;;;;17.00;11.32;;;12.60;99.90;;;;;;1971801;28;20035;-63
2023/05/31 00:24:53;;;;;;;16.92;12.02;;;12.60;99.90;;;;;;1973011;28;20036;-62
2023/05/31 00:25:50;;;;;;;17.77;11.95;;;12.60;99.90;;;;;;1970793;28;20045;-63
2023/05/31 00:26:48;;;;;;;15.98;11.95;;;12.60;99.90;;;;;;1972539;28;20033;-63
2023/05/31 00:27:45;;;;;;;17.42;11.98;;;12.60;99.90;;;;;;1972099;28;20033;-63
2023/05/31 00:28:43;;;;;;;15.32;11.50;;;12.50;99.90;;;;;;1969437;28;20052;-62
2023/05/31 00:29:40;;;;;;;20.83;12.02;;;12.50;99.90;;;;;;1974638;28;20493;-63
2023/05/31 00:30:38;;;;;;;18.15;11.93;;;12.50;99.90;;;;;;1972178;28;20030;-63
2023/05/31 00:31:35;;;;;;;14.52;11.50;;;12.50;99.90;;;;;;1971490;28;20498;-63
2023/05/31 00:32:33;;;;;;;17.27;11.85;;;12.50;99.90;;;;;;1970553;28;20034;-62
2023/05/31 00:33:30;;;;;;;13.48;11.75;;;12.50;99.90;;;;;;1972280;28;20056;-62
2023/05/31 00:34:28;;;;;;;18.42;11.82;;;12.50;99.90;;;;;;1972220;28;20040;-63
2023/05/31 00:35:25;;;;;;;19.77;12.30;;;12.50;99.90;;;;;;1971692;28;20419;-62
2023/05/31 00:36:23;;;;;;;20.90;12.30;;;12.50;99.90;;;;;;1972696;28;20621;-62
2023/05/31 00:37:21;;;;;;;19.80;12.98;;;12.50;99.90;;;;;;1973048;28;20029;-63
2023/05/31 00:38:18;;;;;;;19.17;13.13;;;13.30;99.90;;;;;;1969637;28;20034;-63
2023/05/31 00:39:16;;;;;;;17.45;12.38;;;12.50;99.90;;;;;;1968532;28;20040;-62
2023/05/31 00:40:13;;;;;;;19.17;12.45;;;12.40;99.90;;;;;;1971133;28;20033;-63
2023/05/31 00:41:11;;;;;;;19.95;12.85;;;12.50;99.90;;;;;;1969897;28;20088;-62
2023/05/31 00:42:08;;;;;;;17.92;12.73;;;12.40;99.90;;;;;;1971724;28;20446;-63
2023/05/31 00:43:06;;;;;;;18.15;12.93;;;12.40;99.90;;;;;;1969230;28;20437;-63
2023/05/31 00:44:03;;;;;;;19.13;12.98;;;12.40;99.90;;;;;;1973147;28;20110;-63
2023/05/31 00:45:01;;;;;;;20.30;13.48;;;12.40;99.90;;;;;;1970682;28;20022;-62
2023/05/31 00:45:58;;;;;;;20.17;12.27;;;12.40;99.90;;;;;;1969719;28;20033;-62
2023/05/31 00:46:56;;;;;;;26.42;13.98;;;12.40;99.90;;;;;;1973437;28;20061;-62
2023/05/31 00:47:54;;;;;;;19.98;13.57;;;12.40;99.90;;;;;;1970345;28;20025;-63
2023/05/31 00:48:52;;;;;;;18.85;13.73;;;12.40;99.90;;;;;;1970198;28;20033;-63
2023/05/31 00:49:50;;;;;;;16.48;11.93;;;12.40;99.90;;;;;;1966527;28;21015;-63
2023/05/31 00:50:48;;;;;;;15.35;11.85;;;12.40;99.90;;;;;;1962937;28;21063;-62
2023/05/31 00:51:45;;;;;;;19.83;12.18;;;12.40;99.90;;;;;;1971274;28;20104;-62
2023/05/31 00:52:44;;;;;;;15.82;11.27;;;11.50;99.90;;;;;;1971625;28;20505;-63
2023/05/31 00:53:43;;;;;;;17.80;12.60;;;12.40;99.90;;;;;;1971915;28;20065;-62
2023/05/31 00:54:41;;;;;;;18.83;12.98;;;12.40;99.90;;;;;;1971141;28;20133;-63
2023/05/31 00:55:38;;;;;;;24.48;12.93;;;12.30;99.90;;;;;;1970780;28;20021;-62
2023/05/31 00:56:36;;;;;;;15.43;11.65;;;12.30;99.90;;;;;;1967187;28;20026;-62
2023/05/31 00:57:33;;;;;;;19.52;13.15;;;12.30;99.90;;;;;;1970366;28;20490;-63
2023/05/31 00:58:31;;;;;;;17.95;12.40;;;12.30;99.90;;;;;;1970930;28;20032;-62
2023/05/31 00:59:28;;;;;;;19.13;13.45;;;12.30;99.90;;;;;;1979117;28;20544;-63
2023/05/31 01:00:26;;;;;;;20.10;13.23;;;12.30;99.90;;;;;;1970258;28;20026;-62
2023/05/31 01:01:27;;;;;;;16.83;12.73;;;12.30;99.90;;;;;;1962761;28;20030;-62
2023/05/31 01:02:25;;;;;;;18.27;13.48;;;12.30;99.90;;;;;;1969834;28;20025;-64
2023/05/31 01:03:23;;;;;;;17.85;13.90;;;12.40;99.90;;;;;;1961040;28;20430;-62
2023/05/31 01:04:21;;;;;;;19.15;13.00;;;12.30;99.90;;;;;;1970444;28;20036;-63
2023/05/31 01:05:18;;;;;;;15.15;12.27;;;12.30;99.90;;;;;;1969222;28;20481;-62
2023/05/31 01:06:16;;;;;;;18.98;12.80;;;12.30;99.90;;;;;;1967944;28;20630;-62
2023/05/31 01:07:13;;;;;;;18.85;12.88;;;12.20;99.90;;;;;;1973377;28;20017;-63
2023/05/31 01:08:11;;;;;;;18.55;12.57;;;12.30;99.90;;;;;;1970248;28;20049;-63
2023/05/31 01:09:09;;;;;;;25.15;14.70;;;12.20;99.90;;;;;;1970301;28;20176;-63
2023/05/31 01:10:06;;;;;;;16.83;12.63;;;12.20;99.90;;;;;;1971079;28;20055;-62
2023/05/31 01:11:12;;;;;;;19.38;13.23;;;12.20;99.90;;;;;;1971668;28;20029;-62
2023/05/31 01:12:10;;;;;;;19.88;12.80;;;12.20;99.90;;;;;;1963296;28;20022;-62
2023/05/31 01:13:19;;;;;;;16.83;12.68;;;12.20;99.90;;;;;;1962556;28;20025;-63
2023/05/31 01:14:24;;;;;;;17.17;12.95;;;12.20;99.90;;;;;;1971718;28;20123;-62
2023/05/31 01:15:31;;;;;;;24.00;13.57;;;12.20;99.90;;;;;;1963626;28;20455;-63
2023/05/31 01:16:38;;;;;;;17.80;12.73;;;12.20;99.90;;;;;;1961786;28;20041;-62
2023/05/31 01:18:03;;;;;;;20.92;14.20;;;12.20;99.90;;;;;;1954151;28;20329;-62
2023/05/31 01:19:03;;;;;;;24.33;13.13;;;12.10;99.90;;;;;;1965448;28;20040;-63
2023/05/31 01:20:09;;;;;;;17.00;12.57;;;12.20;99.90;;;;;;1971693;28;20052;-63
2023/05/31 01:21:06;;;;;;;19.30;13.27;;;12.10;99.90;;;;;;1969918;28;20072;-63
2023/05/31 01:22:17;;;;;;;16.70;13.57;;;12.10;99.90;;;;;;1969862;28;20025;-63
2023/05/31 01:23:26;;;;;;;22.95;14.18;;;12.10;99.90;;;;;;1973196;28;20486;-62
2023/05/31 01:24:53;;;;;;;25.98;15.25;;;12.10;99.90;;;;;;1972008;28;20034;-62
2023/05/31 01:25:50;;;;;;;17.15;12.88;;;12.20;99.90;;;;;;1973626;28;20021;-63
2023/05/31 01:26:49;;;;;;;21.75;13.85;;;12.10;99.90;;;;;;1970877;28;20052;-63
2023/05/31 01:27:47;;;;;;;26.27;14.13;;;12.10;99.90;;;;;;1974194;28;20451;-62
2023/05/31 01:28:46;;;;;;;21.02;15.45;;;12.20;99.90;;;;;;1972480;28;20029;-62
2023/05/31 01:29:44;;;;;;;20.13;14.50;;;12.10;99.90;;;;;;1972666;28;20191;-63
2023/05/31 01:30:41;;;;;;;19.85;14.23;;;12.00;99.90;;;;;;1972538;28;20010;-63
2023/05/31 01:31:40;;;;;;;24.90;15.38;;;12.00;99.90;;;;;;1963854;28;20071;-63
2023/05/31 01:32:37;;;;;;;22.55;16.17;;;12.00;99.90;;;;;;1964615;28;20128;-63
2023/05/31 01:33:35;;;;;;;22.00;14.07;;;12.00;99.90;;;;;;1970506;28;21218;-63
2023/05/31 01:34:33;;;;;;;24.42;15.73;;;12.00;99.90;;;;;;1970382;28;20038;-63
2023/05/31 01:35:30;;;;;;;25.95;15.40;;;12.20;99.90;;;;;;1971898;28;20029;-62
2023/05/31 01:36:28;;;;;;;19.52;14.23;;;12.00;99.90;;;;;;1969709;28;20031;-62
2023/05/31 01:37:25;;;;;;;25.52;15.68;;;12.00;99.90;;;;;;1974300;28;20021;-63
2023/05/31 01:38:23;;;;;;;23.02;13.73;;;12.10;99.90;;;;;;1973800;28;20029;-62
2023/05/31 01:39:20;;;;;;;19.73;13.77;;;12.00;99.90;;;;;;1974771;28;20040;-63
2023/05/31 01:40:18;;;;;;;19.17;14.20;;;12.00;99.90;;;;;;1971217;28;20132;-63
2023/05/31 01:41:15;;;;;;;20.75;14.07;;;12.00;99.90;;;;;;1974234;28;20032;-63
2023/05/31 01:42:13;;;;;;;20.88;14.75;;;11.90;99.90;;;;;;1970289;28;20022;-62
2023/05/31 01:43:10;;;;;;;18.73;14.52;;;11.90;99.90;;;;;;1969768;28;20032;-63
2023/05/31 01:44:08;;;;;;;24.25;15.13;;;11.90;99.90;;;;;;1964999;28;20495;-63
2023/05/31 01:45:06;;;;;;;20.52;14.30;;;11.90;99.90;;;;;;1961255;28;20034;-63
2023/05/31 01:46:04;;;;;;;19.65;14.43;;;11.90;99.90;;;;;;1969284;28;20565;-63
2023/05/31 01:47:01;;;;;;;20.63;14.82;;;11.90;99.90;;;;;;1954887;28;20161;-62
2023/05/31 01:48:01;;;;;;;18.75;14.65;;;11.90;99.90;;;;;;1953550;28;20100;-62
2023/05/31 01:48:59;;;;;;;23.13;15.30;;;11.90;99.90;;;;;;1970861;28;20480;-62
2023/05/31 01:49:56;;;;;;;19.60;14.23;;;12.00;99.90;;;;;;1965679;28;20037;-62
2023/05/31 01:50:54;;;;;;;22.00;15.20;;;12.80;99.90;;;;;;1961048;28;20030;-62
2023/05/31 01:51:52;;;;;;;21.88;15.73;;;11.90;99.90;;;;;;1970240;28;20078;-63
2023/05/31 01:52:50;;;;;;;18.95;14.40;;;11.90;99.90;;;;;;1964028;28;20026;-62
2023/05/31 01:53:47;;;;;;;21.38;14.52;;;11.90;99.90;;;;;;1962842;28;20026;-63
2023/05/31 01:54:45;;;;;;;23.42;13.60;;;11.90;99.90;;;;;;1956667;28;20129;-63
2023/05/31 01:55:43;;;;;;;21.02;14.48;;;11.90;99.90;;;;;;1961946;28;20041;-63
2023/05/31 01:56:40;;;;;;;20.30;13.55;;;11.90;99.90;;;;;;1958895;28;20022;-63
2023/05/31 01:57:40;;;;;;;22.52;15.52;;;11.90;99.90;;;;;;1970668;28;20042;-62
2023/05/31 01:58:41;;;;;;;23.08;14.23;;;11.90;99.90;;;;;;1964091;28;20018;-63
2023/05/31 01:59:38;;;;;;;;;;;11.90;99.90;;;;;;1966179;28;20018;-62
2023/05/31 02:00:36;;;;;;;22.10;15.57;;;11.90;99.90;;;;;;1961676;28;20278;-62
2023/05/31 02:01:35;;;;;;;22.17;14.60;;;11.80;99.90;;;;;;1958776;28;20624;-63
2023/05/31 02:02:33;;;;;;;19.65;14.75;;;11.80;99.90;;;;;;1962879;28;20119;-62
2023/05/31 02:03:30;;;;;;;21.92;15.20;;;11.80;99.90;;;;;;1970871;28;20484;-62
2023/05/31 02:04:28;;;;;;;21.15;14.85;;;11.80;99.90;;;;;;1963681;28;20164;-63
2023/05/31 02:05:25;;;;;;;20.85;14.50;;;11.80;99.90;;;;;;1972031;28;20020;-62
2023/05/31 02:06:26;;;;;;;20.73;14.23;;;11.80;99.90;;;;;;1973723;28;20095;-62
2023/05/31 02:07:24;;;;;;;23.52;15.35;;;11.80;99.90;;;;;;1972057;28;20056;-62
2023/05/31 02:08:23;;;;;;;22.35;15.40;;;11.80;99.90;;;;;;1973943;28;20109;-63
2023/05/31 02:09:21;;;;;;;28.73;16.58;;;11.80;99.90;;;;;;1973859;28;20097;-62
2023/05/31 02:10:18;;;;;;;20.08;14.02;;;11.80;99.90;;;;;;1973027;28;22045;-63
2023/05/31 02:11:15;;;;;;;19.42;15.20;;;11.70;99.90;;;;;;1974089;28;20021;-63
2023/05/31 02:12:13;;;;;;;20.92;15.88;;;11.70;99.90;;;;;;1970875;28;20038;-62
2023/05/31 02:13:11;;;;;;;23.95;14.38;;;11.80;99.90;;;;;;1972882;28;20022;-63
2023/05/31 02:14:08;;;;;;;23.92;14.82;;;11.70;99.90;;;;;;1971048;28;20056;-63
2023/05/31 02:15:12;;;;;;;24.70;16.17;;;11.80;99.90;;;;;;1971654;28;20083;-63
2023/05/31 02:16:09;;;;;;;23.95;16.88;;;11.70;99.90;;;;;;1971062;28;20108;-63
2023/05/31 02:17:07;;;;;;;23.38;15.38;;;11.70;99.90;;;;;;1970092;28;20458;-62
2023/05/31 02:18:05;;;;;;;26.02;15.10;;;11.70;99.90;;;;;;1970222;28;20071;-63
2023/05/31 02:19:03;;;;;;;22.33;16.38;;;11.70;99.90;;;;;;1970663;28;20597;-62
2023/05/31 02:20:00;;;;;;;23.88;16.23;;;11.70;99.90;;;;;;1972484;28;20053;-62
2023/05/31 02:20:58;;;;;;;22.50;15.50;;;11.70;99.90;;;;;;1969730;28;20017;-62
2023/05/31 02:21:55;;;;;;;22.25;15.73;;;11.60;99.90;;;;;;1971750;28;20050;-63
2023/05/31 02:22:53;;;;;;;21.23;14.82;;;11.60;99.90;;;;;;1973208;28;20122;-62
2023/05/31 02:23:50;;;;;;;20.85;16.08;;;11.60;99.90;;;;;;1972587;28;20123;-62
2023/05/31 02:24:48;;;;;;;18.65;15.63;;;11.60;99.90;;;;;;1972794;28;20490;-63
2023/05/31 02:25:49;;;;;;;23.48;14.90;;;11.60;99.90;;;;;;1971961;28;20087;-62
2023/05/31 02:26:46;;;;;;;24.60;16.35;;;11.60;99.90;;;;;;1968433;28;20806;-62
2023/05/31 02:27:44;;;;;;;20.05;14.93;;;11.60;99.90;;;;;;1973172;28;20026;-62
2023/05/31 02:28:41;;;;;;;23.90;15.85;;;11.60;99.90;;;;;;1971944;28;20037;-63
2023/05/31 02:29:39;;;;;;;20.75;16.10;;;11.60;99.90;;;;;;1971397;28;20650;-63
2023/05/31 02:30:38;;;;;;;24.52;16.52;;;11.50;99.90;;;;;;1970496;28;20034;-62
2023/05/31 02:31:35;;;;;;;28.23;17.10;;;11.60;99.90;;;;;;1972191;28;20722;-63
2023/05/31 02:32:37;;;;;;;25.83;17.50;;;11.50;99.90;;;;;;1968702;28;20053;-63
2023/05/31 02:33:35;;;;;;;24.38;16.20;;;11.50;99.90;;;;;;1970894;28;20051;-62
2023/05/31 02:34:33;;;;;;;26.80;16.60;;;11.50;99.90;;;;;;1974022;28;20025;-62
2023/05/31 02:35:30;;;;;;;21.77;16.45;;;11.50;99.90;;;;;;1971179;28;20017;-63
2023/05/31 02:36:29;;;;;;;26.02;16.75;;;11.50;99.90;;;;;;1969656;28;20026;-63
2023/05/31 02:37:27;;;;;;;20.20;16.70;;;11.50;99.90;;;;;;1973229;28;20189;-62
2023/05/31 02:38:25;;;;;;;25.67;16.55;;;11.50;99.90;;;;;;1973404;28;20097;-62
2023/05/31 02:39:22;;;;;;;23.55;17.95;;;11.50;99.90;;;;;;1974650;28;20021;-63
2023/05/31 02:40:20;;;;;;;26.33;17.75;;;11.50;99.90;;;;;;1971202;28;20115;-63
2023/05/31 02:41:17;;;;;;;24.63;17.27;;;11.50;99.90;;;;;;1973839;28;20517;-62
2023/05/31 02:42:15;;;;;;;24.67;17.20;;;11.40;99.90;;;;;;1971788;28;20459;-63
2023/05/31 02:43:12;;;;;;;27.42;17.70;;;11.50;99.90;;;;;;1971312;28;20057;-63
2023/05/31 02:44:10;;;;;;;26.20;17.90;;;11.40;99.90;;;;;;1971177;28;20076;-63
2023/05/31 02:45:08;;;;;;;26.08;17.73;;;11.40;99.90;;;;;;1971034;28;20033;-63
2023/05/31 02:46:06;;;;;;;22.70;17.27;;;11.40;99.90;;;;;;1969739;28;20029;-63
2023/05/31 02:47:03;;;;;;;26.35;16.85;;;11.40;99.90;;;;;;1971811;28;20025;-62
2023/05/31 02:48:04;;;;;;;25.77;19.05;;;11.40;99.90;;;;;;1970398;28;20033;-63
2023/05/31 02:49:02;;;;;;;25.55;18.42;;;11.40;99.90;;;;;;1970346;28;20025;-63
2023/05/31 02:50:00;;;;;;;23.60;16.90;;;11.30;99.90;;;;;;1972479;28;20037;-62
2023/05/31 02:50:57;;;;;;;27.67;19.10;;;11.30;99.90;;;;;;1970854;28;20586;-62
2023/05/31 02:51:55;;;;;;;23.98;17.27;;;11.40;99.90;;;;;;1973136;28;20644;-62
2023/05/31 02:52:53;;;;;;;25.00;18.27;;;11.30;99.90;;;;;;1970141;28;20895;-62
2023/05/31 02:53:50;;;;;;;24.55;19.13;;;11.30;99.90;;;;;;1972902;28;20030;-63
2023/05/31 02:54:48;;;;;;;24.77;17.77;;;11.30;99.90;;;;;;1970467;28;20495;-63
2023/05/31 02:55:46;;;;;;;26.60;19.05;;;11.30;99.90;;;;;;1972008;28;20032;-62
2023/05/31 02:56:44;;;;;;;28.60;18.27;;;11.30;99.90;;;;;;1972947;28;20028;-62
2023/05/31 02:57:42;;;;;;;24.85;18.00;;;11.30;99.90;;;;;;1970568;28;20013;-63
2023/05/31 02:58:40;;;;;;;24.83;17.60;;;11.30;99.90;;;;;;1972942;28;20014;-63
2023/05/31 02:59:38;;;;;;;23.85;18.35;;;11.30;99.90;;;;;;1968608;28;20071;-62
2023/05/31 03:00:35;;;;;;;27.75;18.25;;;11.30;99.90;;;;;;1973148;28;20028;-62
2023/05/31 03:01:33;;;;;;;27.67;18.50;;;11.30;99.90;;;;;;1971483;28;20093;-62
2023/05/31 03:02:31;;;;;;;23.73;18.33;;;11.30;99.90;;;;;;1969849;28;20025;-63
2023/05/31 03:03:28;;;;;;;21.92;17.05;;;11.30;99.90;;;;;;1968548;28;21399;-63
2023/05/31 03:04:26;;;;;;;26.85;19.73;;;11.30;99.90;;;;;;1972706;28;20084;-62
2023/05/31 03:05:24;;;;;;;25.27;18.13;;;11.20;99.90;;;;;;1971763;28;20107;-62
2023/05/31 03:06:21;;;;;;;24.48;19.20;;;11.20;99.90;;;;;;1970283;28;20105;-62
2023/05/31 03:07:19;;;;;;;29.40;18.23;;;11.20;99.90;;;;;;1970978;28;20030;-62
2023/05/31 03:08:16;;;;;;;28.65;19.73;;;11.20;99.90;;;;;;1973119;28;20021;-63
2023/05/31 03:09:16;;;;;;;23.77;18.63;;;11.20;99.90;;;;;;1971615;28;20615;-62
2023/05/31 03:10:14;;;;;;;25.48;18.73;;;11.20;99.90;;;;;;1972518;28;20439;-62
2023/05/31 03:11:11;;;;;;;24.00;17.08;;;11.20;99.90;;;;;;1970893;28;20029;-62
2023/05/31 03:12:10;;;;;;;26.10;18.80;;;11.20;99.90;;;;;;1970733;28;20026;-62
2023/05/31 03:13:07;;;;;;;25.73;17.88;;;11.20;99.90;;;;;;1971392;28;20113;-62
2023/05/31 03:14:05;;;;;;;23.35;18.67;;;11.20;99.90;;;;;;1971936;28;20034;-63
2023/05/31 03:15:03;;;;;;;26.27;19.05;;;11.20;99.90;;;;;;1972087;28;20029;-62
2023/05/31 03:16:01;;;;;;;27.00;18.77;;;11.20;99.90;;;;;;1968774;28;20395;-63
2023/05/31 03:16:58;;;;;;;33.22;19.77;;;11.20;99.90;;;;;;1971459;28;20029;-63
2023/05/31 03:17:56;;;;;;;28.92;19.85;;;11.20;99.90;;;;;;1971667;28;20034;-62
2023/05/31 03:18:53;;;;;;;27.42;18.77;;;11.20;99.90;;;;;;1972219;28;20022;-62
2023/05/31 03:19:51;;;;;;;27.60;19.23;;;11.40;99.90;;;;;;1971104;28;20034;-63
2023/05/31 03:20:49;;;;;;;33.25;18.85;;;11.20;99.90;;;;;;1973015;28;20018;-62
2023/05/31 03:21:46;;;;;;;28.23;19.52;;;11.20;99.90;;;;;;1971422;28;20496;-62
2023/05/31 03:22:44;;;;;;;23.02;18.15;;;11.20;99.90;;;;;;1972277;28;20018;-62
2023/05/31 03:23:41;;;;;;;24.27;18.73;;;11.20;99.90;;;;;;1973971;28;20022;-62
2023/05/31 03:24:40;;;;;;;24.02;18.77;;;11.20;99.90;;;;;;1970781;28;20037;-62
2023/05/31 03:25:37;;;;;;;27.60;19.20;;;11.20;99.90;;;;;;1970946;28;20034;-63
2023/05/31 03:26:35;;;;;;;25.65;18.10;;;11.20;99.90;;;;;;1971298;28;20028;-63
2023/05/31 03:27:33;;;;;;;27.98;18.83;;;11.20;99.90;;;;;;1969289;28;20088;-62
2023/05/31 03:28:30;;;;;;;25.13;18.92;;;11.20;99.90;;;;;;1969626;28;20374;-63
2023/05/31 03:29:28;;;;;;;28.60;20.40;;;11.10;99.90;;;;;;1974230;28;20040;-62
2023/05/31 03:30:25;;;;;;;27.95;19.40;;;11.20;99.90;;;;;;1971369;28;20037;-62
2023/05/31 03:31:23;;;;;;;25.75;19.23;;;11.20;99.90;;;;;;1972701;28;20064;-63
2023/05/31 03:32:20;;;;;;;25.13;18.48;;;11.20;99.90;;;;;;1968393;28;20041;-62
2023/05/31 03:33:18;;;;;;;23.80;18.30;;;11.20;99.90;;;;;;1971478;28;20021;-63
2023/05/31 03:34:15;;;;;;;24.20;18.20;;;11.10;99.90;;;;;;1971782;28;20025;-62
2023/05/31 03:35:13;;;;;;;31.15;21.33;;;11.20;99.90;;;;;;1972229;28;20026;-62
2023/05/31 03:36:10;;;;;;;24.85;19.15;;;11.20;99.90;;;;;;1972225;28;20029;-62
2023/05/31 03:37:08;;;;;;;25.73;18.60;;;11.10;99.90;;;;;;1971878;28;20482;-62
2023/05/31 03:38:05;;;;;;;26.65;18.60;;;11.10;99.90;;;;;;1972720;28;20033;-63
2023/05/31 03:39:03;;;;;;;26.55;18.88;;;11.10;99.90;;;;;;1974156;28;20014;-62
2023/05/31 03:40:00;;;;;;;26.17;17.80;;;11.20;99.90;;;;;;1969706;28;20021;-62
2023/05/31 03:40:58;;;;;;;29.42;18.70;;;11.20;99.90;;;;;;1972872;28;20029;-63
2023/05/31 03:41:56;;;;;;;27.40;18.67;;;11.20;99.90;;;;;;1972635;28;20030;-62
2023/05/31 03:42:53;;;;;;;28.00;19.63;;;11.20;99.90;;;;;;1969469;28;20040;-62
2023/05/31 03:43:51;;;;;;;26.85;18.25;;;11.20;99.90;;;;;;1972136;28;20073;-63
2023/05/31 03:44:49;;;;;;;24.83;18.17;;;11.20;99.90;;;;;;1971549;28;20037;-62
2023/05/31 03:45:47;;;;;;;27.48;19.48;;;11.20;99.90;;;;;;1972843;28;20030;-63
2023/05/31 03:46:44;;;;;;;25.50;17.92;;;11.20;99.90;;;;;;1973751;28;20029;-62
2023/05/31 03:47:42;;;;;;;27.58;19.23;;;11.20;99.90;;;;;;1969926;28;20044;-62
2023/05/31 03:48:39;;;;;;;27.85;17.40;;;11.20;99.90;;;;;;1971997;28;20025;-63
2023/05/31 03:49:37;;;;;;;27.33;17.30;;;11.20;99.90;;;;;;1972950;28;20045;-62
2023/05/31 03:50:34;;;;;;;26.30;17.42;;;11.20;99.90;;;;;;1972536;28;20363;-62
2023/05/31 03:51:32;;;;;;;23.92;17.08;;;11.20;99.90;;;;;;1972230;28;20037;-63
2023/05/31 03:52:29;;;;;;;29.05;18.77;;;11.40;99.90;;;;;;1970681;28;20562;-63
2023/05/31 03:53:27;;;;;;;22.17;16.83;;;11.20;99.90;;;;;;1972969;28;20133;-63
2023/05/31 03:54:25;;;;;;;27.38;18.27;;;11.20;99.90;;;;;;1972545;28;20033;-62
2023/05/31 03:55:24;;;;;;;22.60;17.95;;;11.20;99.90;;;;;;1971896;28;20025;-62
2023/05/31 03:56:22;;;;;;;22.70;17.42;;;11.20;99.90;;;;;;1971583;28;20017;-63
2023/05/31 03:57:20;;;;;;;23.63;17.70;;;11.20;99.90;;;;;;1968635;28;20075;-63
2023/05/31 03:58:18;;;;;;;22.55;17.05;;;11.20;99.90;;;;;;1970962;28;20099;-62
2023/05/31 03:59:16;;;;;;;28.20;19.05;;;11.20;99.90;;;;;;1970400;28;20577;-63
2023/05/31 04:00:14;;;;;;;25.48;18.13;;;11.20;99.90;;;;;;1968564;28;20029;-63
2023/05/31 04:01:11;;;;;;;23.38;17.08;;;11.20;99.90;;;;;;1971336;28;20026;-62
2023/05/31 04:02:09;;;;;;;24.50;17.40;;;11.20;99.90;;;;;;1971250;28;20038;-62
2023/05/31 04:03:06;;;;;;;24.88;17.90;;;11.20;99.90;;;;;;1972104;28;20028;-62
2023/05/31 04:04:04;;;;;;;27.92;17.25;;;11.20;99.90;;;;;;1971761;28;20022;-63
2023/05/31 04:05:03;;;;;;;22.00;16.23;;;11.20;99.90;;;;;;1972458;28;20030;-63
2023/05/31 04:06:01;;;;;;;21.58;16.75;;;11.20;99.90;;;;;;1967694;28;20026;-62
2023/05/31 04:06:59;;;;;;;21.58;15.57;;;11.10;99.90;;;;;;1971388;28;20034;-63
2023/05/31 04:07:56;;;;;;;25.52;16.73;;;11.20;99.90;;;;;;1970146;28;20107;-62
2023/05/31 04:08:54;;;;;;;22.25;16.92;;;11.10;99.90;;;;;;1973189;28;20510;-62
2023/05/31 04:09:52;;;;;;;22.90;17.10;;;10.70;99.90;;;;;;1967687;28;20088;-63
2023/05/31 04:10:49;;;;;;;30.88;17.83;;;11.00;99.90;;;;;;1970590;28;20502;-62
2023/05/31 04:11:47;;;;;;;21.65;16.67;;;11.20;99.90;;;;;;1969839;28;20029;-63
2023/05/31 04:12:44;;;;;;;25.55;17.70;;;11.20;99.90;;;;;;1969993;28;20105;-62
2023/05/31 04:13:42;;;;;;;23.52;16.73;;;11.20;99.90;;;;;;1971926;28;20506;-62
2023/05/31 04:14:39;;;;;;;24.08;16.58;;;11.20;99.90;;;;;;1971003;28;20463;-63
2023/05/31 04:15:37;;;;;;;23.33;16.30;;;11.20;99.90;;;;;;1972228;28;20033;-63
2023/05/31 04:16:34;;;;;;;24.27;16.85;;;11.20;99.90;;;;;;1971043;28;20037;-63
2023/05/31 04:17:32;;;;;;;23.88;16.58;;;11.30;99.90;;;;;;1969950;28;20121;-63
2023/05/31 04:18:29;;;;;;;19.30;15.63;;;11.30;99.90;;;;;;1971982;28;20025;-63
2023/05/31 04:19:27;;;;;;;25.58;17.52;;;11.30;99.90;;;;;;1973347;28;20013;-63
2023/05/31 04:20:24;;;;;;;26.05;17.05;;;11.30;99.90;;;;;;1970233;28;20034;-63
2023/05/31 04:21:22;;;;;;;26.50;17.38;;;11.20;99.90;;;;;;1971214;28;20013;-63
2023/05/31 04:22:20;;;;;;;25.45;17.80;;;11.30;99.90;;;;;;1969216;28;20026;-62
2023/05/31 04:23:18;;;;;;;25.55;18.55;;;11.30;99.90;;;;;;1970928;28;20021;-63
2023/05/31 04:24:15;;;;;;;25.75;17.70;;;11.30;99.90;;;;;;1969197;28;20018;-62
2023/05/31 04:25:17;;;;;;;22.63;17.30;;;11.20;99.90;;;;;;1968947;28;20095;-63
2023/05/31 04:26:17;;;;;;;23.30;17.77;;;11.20;99.90;;;;;;1969042;28;20022;-62
2023/05/31 04:27:18;;;;;;;26.88;17.08;;;11.20;99.90;;;;;;1972770;28;20033;-63
2023/05/31 04:28:18;;;;;;;24.48;17.27;;;11.30;99.90;;;;;;1971400;28;20461;-62
2023/05/31 04:29:17;;;;;;;28.55;17.52;;;11.30;99.90;;;;;;1970600;28;20025;-62
2023/05/31 04:30:15;;;;;;;22.63;17.70;;;11.20;99.90;;;;;;1971540;28;20167;-62
2023/05/31 04:31:12;;;;;;;27.08;17.92;;;11.30;99.90;;;;;;1970846;28;20048;-63
2023/05/31 04:32:14;;;;;;;25.67;18.80;;;11.30;99.90;;;;;;1974473;28;20025;-62
2023/05/31 04:33:11;;;;;;;26.52;18.02;;;11.30;99.90;;;;;;1977267;28;20133;-63
2023/05/31 04:34:10;;;;;;;25.10;17.33;;;11.30;99.90;;;;;;1969775;28;20061;-63
2023/05/31 04:35:08;;;;;;;28.15;17.63;;;11.40;99.90;;;;;;1972049;28;20128;-63
2023/05/31 04:36:08;;;;;;;26.50;18.27;;;11.40;99.90;;;;;;1972171;28;20535;-63
2023/05/31 04:37:06;;;;;;;23.15;16.85;;;11.40;99.90;;;;;;1971706;28;20336;-63
2023/05/31 04:38:04;;;;;;;22.60;16.95;;;11.40;99.90;;;;;;1970306;28;20049;-62
2023/05/31 04:39:09;;;;;;;22.35;17.08;;;11.40;99.90;;;;;;1966681;28;20037;-63
2023/05/31 04:40:09;;;;;;;23.52;17.33;;;11.40;99.90;;;;;;1967992;28;20026;-63
2023/05/31 04:41:06;;;;;;;27.67;17.50;;;11.50;99.90;;;;;;1971301;28;20529;-62
2023/05/31 04:42:05;;;;;;;23.13;17.70;;;11.50;99.90;;;;;;1971549;28;20041;-62
2023/05/31 04:43:03;;;;;;;25.60;17.67;;;11.50;99.90;;;;;;1968788;28;21319;-63
2023/05/31 04:44:00;;;;;;;21.92;16.23;;;11.50;99.90;;;;;;1969314;28;20030;-62
2023/05/31 04:44:58;;;;;;;26.48;17.50;;;11.50;99.90;;;;;;1969380;28;20033;-63
2023/05/31 04:45:55;;;;;;;26.70;16.83;;;11.50;99.90;;;;;;1971389;28;20109;-62
2023/05/31 04:46:53;;;;;;;20.75;16.48;;;11.50;99.90;;;;;;1971089;28;20053;-63
2023/05/31 04:47:51;;;;;;;23.67;16.75;;;11.50;99.90;;;;;;1970615;28;20387;-63
2023/05/31 04:48:49;;;;;;;23.00;16.15;;;11.50;99.90;;;;;;1968945;28;20085;-62
2023/05/31 04:49:48;;;;;;;27.75;17.35;;;11.60;99.90;;;;;;1969727;28;20021;-63
2023/05/31 04:50:46;;;;;;;25.10;17.30;;;11.60;99.90;;;;;;1970990;28;20013;-62
2023/05/31 04:51:43;;;;;;;18.90;16.33;;;11.60;99.90;;;;;;1972186;28;20483;-63
2023/05/31 04:52:41;;;;;;;25.95;16.50;;;11.50;99.90;;;;;;1971655;28;20025;-62
2023/05/31 04:53:39;;;;;;;22.17;16.88;;;11.60;99.90;;;;;;1973621;28;20083;-63
2023/05/31 04:54:36;;;;;;;20.17;16.08;;;11.60;99.90;;;;;;1974361;28;20021;-63
2023/05/31 04:55:34;;;;;;;20.65;16.08;;;11.60;99.90;;;;;;1974285;28;20037;-63
2023/05/31 04:56:31;;;;;;;24.27;16.90;;;11.60;99.90;;;;;;1977950;28;20095;-63